sensor_id;sensor_type;location;lat;lon;timestamp;pressure;altitude;pressure_sealevel;temperature;humidity
64886;BME280;51514;52.206;5.114;2022-07-30T00:01:51;101920.00;;;18.96;74.87
64886;BME280;51514;52.206;5.114;2022-07-30T00:04:17;101915.75;;;18.93;74.99
64886;BME280;51514;52.206;5.114;2022-07-30T00:06:42;101903.16;;;18.92;75.24
64886;BME280;51514;52.206;5.114;2022-07-30T00:09:09;101909.84;;;18.90;75.26
64886;BME280;51514;52.206;5.114;2022-07-30T00:11:34;101906.44;;;18.88;75.07
64886;BME280;51514;52.206;5.114;2022-07-30T00:14:00;101903.41;;;18.83;75.37
64886;BME280;51514;52.206;5.114;2022-07-30T00:16:26;101900.03;;;18.81;75.46
64886;BME280;51514;52.206;5.114;2022-07-30T00:18:51;101903.41;;;18.83;75.50
64886;BME280;51514;52.206;5.114;2022-07-30T00:21:17;101897.94;;;18.83;75.37
64886;BME280;51514;52.206;5.114;2022-07-30T00:23:42;101894.16;;;18.84;75.33
64886;BME280;51514;52.206;5.114;2022-07-30T00:26:07;101895.88;;;18.85;75.35
64886;BME280;51514;52.206;5.114;2022-07-30T00:28:33;101900.31;;;18.86;74.99
64886;BME280;51514;52.206;5.114;2022-07-30T00:30:58;101886.16;;;18.82;75.14
64886;BME280;51514;52.206;5.114;2022-07-30T00:33:23;101891.84;;;18.81;74.98
64886;BME280;51514;52.206;5.114;2022-07-30T00:35:49;101885.03;;;18.77;74.80
64886;BME280;51514;52.206;5.114;2022-07-30T00:38:14;101884.38;;;18.75;74.94
64886;BME280;51514;52.206;5.114;2022-07-30T00:40:40;101888.13;;;18.74;75.03
64886;BME280;51514;52.206;5.114;2022-07-30T00:43:05;101884.72;;;18.72;75.39
64886;BME280;51514;52.206;5.114;2022-07-30T00:45:31;101888.91;;;18.68;75.45
64886;BME280;51514;52.206;5.114;2022-07-30T00:47:56;101894.72;;;18.65;75.36
64886;BME280;51514;52.206;5.114;2022-07-30T00:50:25;101891.31;;;18.63;75.52
64886;BME280;51514;52.206;5.114;2022-07-30T00:52:51;101886.03;;;18.61;75.19
64886;BME280;51514;52.206;5.114;2022-07-30T00:55:16;101886.44;;;18.58;75.22
64886;BME280;51514;52.206;5.114;2022-07-30T00:57:42;101888.31;;;18.57;75.46
64886;BME280;51514;52.206;5.114;2022-07-30T01:00:10;101899.25;;;18.57;75.17
64886;BME280;51514;52.206;5.114;2022-07-30T01:02:37;101895.81;;;18.55;74.66
64886;BME280;51514;52.206;5.114;2022-07-30T01:05:02;101885.25;;;18.52;74.61
64886;BME280;51514;52.206;5.114;2022-07-30T01:07:28;101885.63;;;18.49;74.76
64886;BME280;51514;52.206;5.114;2022-07-30T01:09:53;101880.53;;;18.46;75.04
64886;BME280;51514;52.206;5.114;2022-07-30T01:12:22;101885.31;;;18.44;75.08
64886;BME280;51514;52.206;5.114;2022-07-30T01:14:48;101884.66;;;18.42;74.94
64886;BME280;51514;52.206;5.114;2022-07-30T01:17:14;101888.25;;;18.43;75.08
64886;BME280;51514;52.206;5.114;2022-07-30T01:19:40;101884.00;;;18.40;75.01
64886;BME280;51514;52.206;5.114;2022-07-30T01:24:57;101881.66;;;18.37;74.72
64886;BME280;51514;52.206;5.114;2022-07-30T01:27:28;101890.03;;;18.36;74.48
64886;BME280;51514;52.206;5.114;2022-07-30T01:29:54;101885.28;;;18.30;74.50
64886;BME280;51514;52.206;5.114;2022-07-30T01:32:22;101882.28;;;18.24;74.55
64886;BME280;51514;52.206;5.114;2022-07-30T01:34:50;101891.00;;;18.20;74.79
64886;BME280;51514;52.206;5.114;2022-07-30T01:37:17;101885.94;;;18.17;74.79
64886;BME280;51514;52.206;5.114;2022-07-30T01:39:43;101881.50;;;18.16;74.67
64886;BME280;51514;52.206;5.114;2022-07-30T01:42:09;101880.66;;;18.15;74.47
64886;BME280;51514;52.206;5.114;2022-07-30T01:44:36;101876.56;;;18.11;74.64
64886;BME280;51514;52.206;5.114;2022-07-30T01:47:03;101882.03;;;18.11;74.42
64886;BME280;51514;52.206;5.114;2022-07-30T01:49:30;101880.31;;;18.10;74.65
64886;BME280;51514;52.206;5.114;2022-07-30T01:51:57;101882.38;;;18.08;74.93
64886;BME280;51514;52.206;5.114;2022-07-30T01:54:25;101885.28;;;18.07;74.69
64886;BME280;51514;52.206;5.114;2022-07-30T01:56:53;101879.84;;;18.07;74.82
64886;BME280;51514;52.206;5.114;2022-07-30T01:59:21;101877.09;;;18.07;74.93
64886;BME280;51514;52.206;5.114;2022-07-30T02:01:49;101879.84;;;18.07;74.74
64886;BME280;51514;52.206;5.114;2022-07-30T02:04:14;101878.53;;;18.03;74.92
64886;BME280;51514;52.206;5.114;2022-07-30T02:06:44;101882.28;;;18.02;75.08
64886;BME280;51514;52.206;5.114;2022-07-30T02:09:13;101877.84;;;18.01;75.19
64886;BME280;51514;52.206;5.114;2022-07-30T02:11:42;101886.03;;;18.01;74.80
64886;BME280;51514;52.206;5.114;2022-07-30T02:14:31;101883.84;;;17.96;74.86
64886;BME280;51514;52.206;5.114;2022-07-30T02:16:59;101884.56;;;17.90;74.91
64886;BME280;51514;52.206;5.114;2022-07-30T02:19:34;101884.75;;;17.88;75.10
64886;BME280;51514;52.206;5.114;2022-07-30T02:22:04;101884.25;;;17.85;74.41
64886;BME280;51514;52.206;5.114;2022-07-30T02:24:31;101886.16;;;17.84;74.46
64886;BME280;51514;52.206;5.114;2022-07-30T02:27:04;101879.38;;;17.80;74.17
64886;BME280;51514;52.206;5.114;2022-07-30T02:29:33;101885.00;;;17.79;74.09
64886;BME280;51514;52.206;5.114;2022-07-30T02:32:00;101889.78;;;17.77;74.04
64886;BME280;51514;52.206;5.114;2022-07-30T02:34:31;101876.69;;;17.72;73.78
64886;BME280;51514;52.206;5.114;2022-07-30T02:36:59;101883.00;;;17.73;74.03
64886;BME280;51514;52.206;5.114;2022-07-30T02:39:26;101885.22;;;17.69;74.05
64886;BME280;51514;52.206;5.114;2022-07-30T02:41:55;101889.34;;;17.65;74.14
64886;BME280;51514;52.206;5.114;2022-07-30T02:44:21;101888.31;;;17.66;74.31
64886;BME280;51514;52.206;5.114;2022-07-30T02:46:48;101886.44;;;17.67;74.80
64886;BME280;51514;52.206;5.114;2022-07-30T02:49:16;101892.06;;;17.65;75.03
64886;BME280;51514;52.206;5.114;2022-07-30T02:51:46;101883.88;;;17.65;75.19
64886;BME280;51514;52.206;5.114;2022-07-30T02:54:13;101887.84;;;17.63;75.06
64886;BME280;51514;52.206;5.114;2022-07-30T02:56:40;101882.69;;;17.60;75.15
64886;BME280;51514;52.206;5.114;2022-07-30T02:59:07;101888.50;;;17.57;75.44
64886;BME280;51514;52.206;5.114;2022-07-30T03:01:34;101883.22;;;17.55;75.78
64886;BME280;51514;52.206;5.114;2022-07-30T03:04:00;101885.28;;;17.53;76.16
64886;BME280;51514;52.206;5.114;2022-07-30T03:06:27;101879.81;;;17.53;76.00
64886;BME280;51514;52.206;5.114;2022-07-30T03:08:53;101886.81;;;17.56;75.81
64886;BME280;51514;52.206;5.114;2022-07-30T03:11:19;101881.53;;;17.54;75.85
64886;BME280;51514;52.206;5.114;2022-07-30T03:13:46;101886.34;;;17.52;75.93
64886;BME280;51514;52.206;5.114;2022-07-30T03:16:13;101890.09;;;17.51;76.37
64886;BME280;51514;52.206;5.114;2022-07-30T03:18:41;101884.63;;;17.51;76.17
64886;BME280;51514;52.206;5.114;2022-07-30T03:21:09;101880.19;;;17.50;76.14
64886;BME280;51514;52.206;5.114;2022-07-30T03:23:36;101884.81;;;17.49;76.26
64886;BME280;51514;52.206;5.114;2022-07-30T03:26:03;101886.69;;;17.49;76.14
64886;BME280;51514;52.206;5.114;2022-07-30T03:28:31;101879.53;;;17.48;76.20
64886;BME280;51514;52.206;5.114;2022-07-30T03:30:57;101876.97;;;17.46;76.23
64886;BME280;51514;52.206;5.114;2022-07-30T03:33:23;101877.81;;;17.47;75.96
64886;BME280;51514;52.206;5.114;2022-07-30T03:35:50;101882.09;;;17.41;75.63
64886;BME280;51514;52.206;5.114;2022-07-30T03:38:17;101877.06;;;17.30;75.92
64886;BME280;51514;52.206;5.114;2022-07-30T03:40:44;101885.47;;;17.12;76.46
64886;BME280;51514;52.206;5.114;2022-07-30T03:43:10;101884.50;;;17.05;76.49
64886;BME280;51514;52.206;5.114;2022-07-30T03:45:37;101887.06;;;16.99;76.63
64886;BME280;51514;52.206;5.114;2022-07-30T03:48:07;101886.88;;;17.00;76.25
64886;BME280;51514;52.206;5.114;2022-07-30T03:50:35;101895.72;;;17.02;75.58
64886;BME280;51514;52.206;5.114;2022-07-30T03:53:02;101897.59;;;17.02;75.25
64886;BME280;51514;52.206;5.114;2022-07-30T03:55:28;101898.47;;;17.02;74.96
64886;BME280;51514;52.206;5.114;2022-07-30T03:57:55;101901.19;;;17.02;74.61
64886;BME280;51514;52.206;5.114;2022-07-30T04:00:20;101901.91;;;16.96;74.63
64886;BME280;51514;52.206;5.114;2022-07-30T04:02:46;101894.22;;;16.92;74.67
64886;BME280;51514;52.206;5.114;2022-07-30T04:05:12;101893.38;;;16.91;74.71
64886;BME280;51514;52.206;5.114;2022-07-30T04:07:38;101891.00;;;16.88;74.84
64886;BME280;51514;52.206;5.114;2022-07-30T04:10:04;101896.47;;;16.80;74.94
64886;BME280;51514;52.206;5.114;2022-07-30T04:12:30;101889.31;;;16.79;75.08
64886;BME280;51514;52.206;5.114;2022-07-30T04:14:55;101892.72;;;16.81;75.08
64886;BME280;51514;52.206;5.114;2022-07-30T04:17:26;101895.13;;;16.84;75.34
64886;BME280;51514;52.206;5.114;2022-07-30T04:19:56;101899.53;;;16.85;75.29
64886;BME280;51514;52.206;5.114;2022-07-30T04:22:27;101899.53;;;16.85;75.56
64886;BME280;51514;52.206;5.114;2022-07-30T04:24:54;101904.13;;;16.85;75.87
64886;BME280;51514;52.206;5.114;2022-07-30T04:27:21;101908.72;;;16.84;75.70
64886;BME280;51514;52.206;5.114;2022-07-30T04:29:50;101904.31;;;16.83;75.78
64886;BME280;51514;52.206;5.114;2022-07-30T04:32:15;101906.03;;;16.76;76.00
64886;BME280;51514;52.206;5.114;2022-07-30T04:34:49;101913.34;;;16.51;74.68
64886;BME280;51514;52.206;5.114;2022-07-30T04:37:16;101914.56;;;16.32;74.91
64886;BME280;51514;52.206;5.114;2022-07-30T04:39:42;101914.69;;;16.15;75.58
64886;BME280;51514;52.206;5.114;2022-07-30T04:42:08;101922.69;;;16.08;76.08
64886;BME280;51514;52.206;5.114;2022-07-30T04:44:33;101921.00;;;16.07;76.03
64886;BME280;51514;52.206;5.114;2022-07-30T04:46:59;101921.69;;;16.09;76.39
64886;BME280;51514;52.206;5.114;2022-07-30T04:49:26;101922.38;;;16.11;76.53
64886;BME280;51514;52.206;5.114;2022-07-30T04:51:52;101919.47;;;16.13;76.77
64886;BME280;51514;52.206;5.114;2022-07-30T04:54:19;101922.53;;;16.18;77.02
64886;BME280;51514;52.206;5.114;2022-07-30T04:56:46;101925.41;;;16.24;77.10
64886;BME280;51514;52.206;5.114;2022-07-30T04:59:13;101919.16;;;16.32;77.21
64886;BME280;51514;52.206;5.114;2022-07-30T05:01:40;101920.31;;;16.37;76.77
64886;BME280;51514;52.206;5.114;2022-07-30T05:04:07;101924.41;;;16.41;77.21
64886;BME280;51514;52.206;5.114;2022-07-30T05:06:33;101927.47;;;16.47;77.42
64886;BME280;51514;52.206;5.114;2022-07-30T05:08:59;101928.50;;;16.54;78.05
64886;BME280;51514;52.206;5.114;2022-07-30T05:11:24;101926.94;;;16.59;78.65
64886;BME280;51514;52.206;5.114;2022-07-30T05:13:50;101929.53;;;16.69;79.16
64886;BME280;51514;52.206;5.114;2022-07-30T05:16:16;101925.41;;;16.81;80.28
64886;BME280;51514;52.206;5.114;2022-07-30T05:18:41;101928.47;;;16.94;81.90
64886;BME280;51514;52.206;5.114;2022-07-30T05:21:07;101925.84;;;17.09;82.94
64886;BME280;51514;52.206;5.114;2022-07-30T05:23:33;101936.88;;;17.24;83.01
64886;BME280;51514;52.206;5.114;2022-07-30T05:25:59;101932.75;;;17.36;83.07
64886;BME280;51514;52.206;5.114;2022-07-30T05:28:25;101936.63;;;17.49;82.98
64886;BME280;51514;52.206;5.114;2022-07-30T05:30:54;101931.78;;;17.60;83.16
64886;BME280;51514;52.206;5.114;2022-07-30T05:33:20;101937.91;;;17.70;83.22
64886;BME280;51514;52.206;5.114;2022-07-30T05:35:46;101933.94;;;17.80;83.03
64886;BME280;51514;52.206;5.114;2022-07-30T05:38:11;101946.00;;;17.86;82.85
64886;BME280;51514;52.206;5.114;2022-07-30T05:40:37;101950.84;;;17.99;81.42
64886;BME280;51514;52.206;5.114;2022-07-30T05:43:02;101956.91;;;18.17;80.41
64886;BME280;51514;52.206;5.114;2022-07-30T05:45:28;101955.06;;;18.32;79.75
64886;BME280;51514;52.206;5.114;2022-07-30T05:47:54;101953.06;;;18.49;78.76
64886;BME280;51514;52.206;5.114;2022-07-30T05:50:19;101954.16;;;18.63;78.01
64886;BME280;51514;52.206;5.114;2022-07-30T05:52:44;101957.09;;;18.76;77.54
64886;BME280;51514;52.206;5.114;2022-07-30T05:55:10;101964.00;;;18.86;77.37
64886;BME280;51514;52.206;5.114;2022-07-30T05:57:35;101965.44;;;18.97;76.76
64886;BME280;51514;52.206;5.114;2022-07-30T06:00:04;101962.44;;;19.07;76.35
64886;BME280;51514;52.206;5.114;2022-07-30T06:02:30;101961.50;;;19.14;76.16
64886;BME280;51514;52.206;5.114;2022-07-30T06:04:55;101955.94;;;19.22;76.09
64886;BME280;51514;52.206;5.114;2022-07-30T06:07:21;101966.50;;;19.25;76.04
64886;BME280;51514;52.206;5.114;2022-07-30T06:09:46;101978.22;;;19.34;75.38
64886;BME280;51514;52.206;5.114;2022-07-30T06:12:12;101972.44;;;19.44;75.28
64886;BME280;51514;52.206;5.114;2022-07-30T06:14:37;101976.69;;;19.46;75.39
64886;BME280;51514;52.206;5.114;2022-07-30T06:17:02;101975.09;;;19.52;74.91
64886;BME280;51514;52.206;5.114;2022-07-30T06:19:28;101975.41;;;19.57;74.79
64886;BME280;51514;52.206;5.114;2022-07-30T06:21:53;101971.88;;;19.63;74.43
64886;BME280;51514;52.206;5.114;2022-07-30T06:24:18;101972.81;;;19.70;74.05
64886;BME280;51514;52.206;5.114;2022-07-30T06:26:43;101974.97;;;19.75;73.75
64886;BME280;51514;52.206;5.114;2022-07-30T06:29:09;101973.16;;;19.82;73.44
64886;BME280;51514;52.206;5.114;2022-07-30T06:31:34;101973.91;;;19.90;73.75
64886;BME280;51514;52.206;5.114;2022-07-30T06:33:59;101965.97;;;19.95;73.16
64886;BME280;51514;52.206;5.114;2022-07-30T06:36:25;101966.03;;;20.02;72.71
64886;BME280;51514;52.206;5.114;2022-07-30T06:38:50;101977.84;;;20.02;72.29
64886;BME280;51514;52.206;5.114;2022-07-30T06:41:15;101974.16;;;20.10;71.74
64886;BME280;51514;52.206;5.114;2022-07-30T06:43:41;101971.28;;;20.18;71.16
64886;BME280;51514;52.206;5.114;2022-07-30T06:46:06;101986.06;;;20.24;71.07
64886;BME280;51514;52.206;5.114;2022-07-30T06:48:32;101971.63;;;20.30;70.00
64886;BME280;51514;52.206;5.114;2022-07-30T06:50:57;101973.59;;;20.36;69.86
64886;BME280;51514;52.206;5.114;2022-07-30T06:53:22;101977.88;;;20.45;70.10
64886;BME280;51514;52.206;5.114;2022-07-30T06:55:48;101972.50;;;20.52;69.75
64886;BME280;51514;52.206;5.114;2022-07-30T06:58:15;101972.53;;;20.58;69.16
64886;BME280;51514;52.206;5.114;2022-07-30T07:00:40;101959.97;;;20.64;68.86
64886;BME280;51514;52.206;5.114;2022-07-30T07:03:07;101962.09;;;20.68;67.75
64886;BME280;51514;52.206;5.114;2022-07-30T07:05:32;101959.16;;;20.70;67.18
64886;BME280;51514;52.206;5.114;2022-07-30T07:07:57;101963.88;;;20.76;67.41
64886;BME280;51514;52.206;5.114;2022-07-30T07:10:23;101971.22;;;20.75;67.28
64886;BME280;51514;52.206;5.114;2022-07-30T07:12:48;101969.94;;;20.71;67.17
64886;BME280;51514;52.206;5.114;2022-07-30T07:15:13;101966.13;;;20.72;67.14
64886;BME280;51514;52.206;5.114;2022-07-30T07:17:39;101974.03;;;20.82;66.46
64886;BME280;51514;52.206;5.114;2022-07-30T07:20:06;101977.03;;;20.87;66.26
64886;BME280;51514;52.206;5.114;2022-07-30T07:22:31;101978.09;;;20.93;66.10
64886;BME280;51514;52.206;5.114;2022-07-30T07:24:57;101976.91;;;21.02;66.42
64886;BME280;51514;52.206;5.114;2022-07-30T07:27:22;101980.13;;;21.12;65.93
64886;BME280;51514;52.206;5.114;2022-07-30T07:29:48;101977.50;;;21.19;65.34
64886;BME280;51514;52.206;5.114;2022-07-30T07:32:13;101972.28;;;21.30;65.03
64886;BME280;51514;52.206;5.114;2022-07-30T07:34:38;101985.66;;;21.40;64.68
64886;BME280;51514;52.206;5.114;2022-07-30T07:37:03;101977.25;;;21.48;64.20
64886;BME280;51514;52.206;5.114;2022-07-30T07:39:29;101975.41;;;21.62;63.41
64886;BME280;51514;52.206;5.114;2022-07-30T07:41:54;101975.03;;;21.71;63.03
64886;BME280;51514;52.206;5.114;2022-07-30T07:44:19;101989.63;;;21.78;62.86
64886;BME280;51514;52.206;5.114;2022-07-30T07:46:45;101996.41;;;21.82;62.18
64886;BME280;51514;52.206;5.114;2022-07-30T07:49:10;101990.53;;;21.92;62.47
64886;BME280;51514;52.206;5.114;2022-07-30T07:51:35;101979.38;;;22.00;61.51
64886;BME280;51514;52.206;5.114;2022-07-30T07:54:01;101989.78;;;22.05;61.68
64886;BME280;51514;52.206;5.114;2022-07-30T07:56:26;101978.13;;;22.03;61.73
64886;BME280;51514;52.206;5.114;2022-07-30T07:58:52;101972.66;;;22.03;61.76
64886;BME280;51514;52.206;5.114;2022-07-30T08:01:19;101982.59;;;22.10;61.13
64886;BME280;51514;52.206;5.114;2022-07-30T08:03:45;101981.97;;;22.15;61.19
64886;BME280;51514;52.206;5.114;2022-07-30T08:06:10;101972.28;;;22.26;60.91
64886;BME280;51514;52.206;5.114;2022-07-30T08:08:36;101982.00;;;22.35;58.68
64886;BME280;51514;52.206;5.114;2022-07-30T08:11:02;101987.31;;;22.43;59.44
64886;BME280;51514;52.206;5.114;2022-07-30T08:13:27;101983.28;;;22.52;60.00
64886;BME280;51514;52.206;5.114;2022-07-30T08:15:52;101995.78;;;22.61;59.05
64886;BME280;51514;52.206;5.114;2022-07-30T08:18:18;101998.53;;;22.61;57.63
64886;BME280;51514;52.206;5.114;2022-07-30T08:20:43;101994.28;;;22.52;57.18
64886;BME280;51514;52.206;5.114;2022-07-30T08:23:08;101990.91;;;22.50;56.95
64886;BME280;51514;52.206;5.114;2022-07-30T08:25:34;101992.19;;;22.54;58.52
64886;BME280;51514;52.206;5.114;2022-07-30T08:27:59;101984.16;;;22.59;57.32
64886;BME280;51514;52.206;5.114;2022-07-30T08:30:27;101983.31;;;22.65;57.58
64886;BME280;51514;52.206;5.114;2022-07-30T08:32:53;101977.59;;;22.67;57.53
64886;BME280;51514;52.206;5.114;2022-07-30T08:35:18;101968.50;;;22.73;56.84
64886;BME280;51514;52.206;5.114;2022-07-30T08:37:43;101970.66;;;22.84;56.86
64886;BME280;51514;52.206;5.114;2022-07-30T08:40:09;101978.72;;;22.92;56.16
64886;BME280;51514;52.206;5.114;2022-07-30T08:42:35;101979.97;;;23.03;56.50
64886;BME280;51514;52.206;5.114;2022-07-30T08:45:00;101980.97;;;23.15;56.00
64886;BME280;51514;52.206;5.114;2022-07-30T08:47:30;101981.81;;;23.15;56.76
64886;BME280;51514;52.206;5.114;2022-07-30T08:49:57;101982.69;;;23.22;55.12
64886;BME280;51514;52.206;5.114;2022-07-30T08:52:30;101979.28;;;23.34;56.67
64886;BME280;51514;52.206;5.114;2022-07-30T08:54:56;101986.22;;;23.43;55.18
64886;BME280;51514;52.206;5.114;2022-07-30T08:57:22;101979.84;;;23.49;54.52
64886;BME280;51514;52.206;5.114;2022-07-30T08:59:47;101988.34;;;23.54;54.23
64886;BME280;51514;52.206;5.114;2022-07-30T09:02:12;101986.03;;;23.57;53.52
64886;BME280;51514;52.206;5.114;2022-07-30T09:04:38;101987.03;;;23.63;53.82
64886;BME280;51514;52.206;5.114;2022-07-30T09:07:03;101997.38;;;23.74;53.34
64886;BME280;51514;52.206;5.114;2022-07-30T09:09:28;102003.09;;;23.79;52.97
64886;BME280;51514;52.206;5.114;2022-07-30T09:11:54;101999.63;;;23.90;51.76
64886;BME280;51514;52.206;5.114;2022-07-30T09:14:19;102008.53;;;23.99;51.68
64886;BME280;51514;52.206;5.114;2022-07-30T09:16:44;102012.72;;;24.08;51.84
64886;BME280;51514;52.206;5.114;2022-07-30T09:19:18;102010.75;;;24.15;49.84
64886;BME280;51514;52.206;5.114;2022-07-30T09:21:57;102012.22;;;24.18;49.93
64886;BME280;51514;52.206;5.114;2022-07-30T09:24:23;102012.22;;;24.24;50.66
64886;BME280;51514;52.206;5.114;2022-07-30T09:27:00;102006.69;;;24.24;50.35
64886;BME280;51514;52.206;5.114;2022-07-30T09:29:27;102003.88;;;24.37;50.08
64886;BME280;51514;52.206;5.114;2022-07-30T09:31:57;102006.97;;;24.48;49.75
64886;BME280;51514;52.206;5.114;2022-07-30T09:34:23;102004.19;;;24.54;49.75
64886;BME280;51514;52.206;5.114;2022-07-30T09:36:49;102003.91;;;24.62;49.14
64886;BME280;51514;52.206;5.114;2022-07-30T09:39:27;102014.44;;;24.72;50.18
64886;BME280;51514;52.206;5.114;2022-07-30T09:41:52;101996.78;;;24.80;49.09
64886;BME280;51514;52.206;5.114;2022-07-30T09:44:25;101998.88;;;24.84;49.28
64886;BME280;51514;52.206;5.114;2022-07-30T09:46:51;101996.47;;;24.94;48.73
64886;BME280;51514;52.206;5.114;2022-07-30T09:49:19;101995.97;;;25.04;49.02
64886;BME280;51514;52.206;5.114;2022-07-30T09:51:45;101996.34;;;25.07;48.51
64886;BME280;51514;52.206;5.114;2022-07-30T09:54:13;101983.72;;;25.18;48.27
64886;BME280;51514;52.206;5.114;2022-07-30T09:56:39;101980.88;;;25.25;47.51
64886;BME280;51514;52.206;5.114;2022-07-30T09:59:06;101981.66;;;25.32;47.82
64886;BME280;51514;52.206;5.114;2022-07-30T10:01:51;101978.84;;;25.38;46.82
64886;BME280;51514;52.206;5.114;2022-07-30T10:04:31;101976.28;;;25.37;46.51
64886;BME280;51514;52.206;5.114;2022-07-30T10:06:58;101980.31;;;25.41;47.16
64886;BME280;51514;52.206;5.114;2022-07-30T10:09:28;101985.50;;;25.31;47.30
64886;BME280;51514;52.206;5.114;2022-07-30T10:11:55;101982.88;;;25.36;47.97
64886;BME280;51514;52.206;5.114;2022-07-30T10:14:22;101982.81;;;25.42;48.51
64886;BME280;51514;52.206;5.114;2022-07-30T10:16:49;101973.84;;;25.47;48.56
64886;BME280;51514;52.206;5.114;2022-07-30T10:19:16;101972.53;;;25.50;48.59
64886;BME280;51514;52.206;5.114;2022-07-30T10:21:43;101980.00;;;25.49;48.42
64886;BME280;51514;52.206;5.114;2022-07-30T10:24:09;101986.59;;;25.48;49.14
64886;BME280;51514;52.206;5.114;2022-07-30T10:26:35;101990.59;;;25.52;48.56
64886;BME280;51514;52.206;5.114;2022-07-30T10:29:01;101979.91;;;25.56;48.17
64886;BME280;51514;52.206;5.114;2022-07-30T10:31:27;101991.16;;;25.54;49.11
64886;BME280;51514;52.206;5.114;2022-07-30T10:33:53;101988.19;;;25.56;49.42
64886;BME280;51514;52.206;5.114;2022-07-30T10:36:19;101976.28;;;25.55;48.46
64886;BME280;51514;52.206;5.114;2022-07-30T10:38:46;101979.59;;;25.45;47.61
64886;BME280;51514;52.206;5.114;2022-07-30T10:44:19;101988.72;;;25.46;47.63
64886;BME280;51514;52.206;5.114;2022-07-30T10:47:04;101990.94;;;25.56;48.11
64886;BME280;51514;52.206;5.114;2022-07-30T10:49:30;101991.78;;;25.56;47.27
64886;BME280;51514;52.206;5.114;2022-07-30T10:51:56;101978.81;;;25.57;47.25
64886;BME280;51514;52.206;5.114;2022-07-30T10:54:34;101989.00;;;25.63;46.66
64886;BME280;51514;52.206;5.114;2022-07-30T10:57:03;101980.75;;;25.74;47.23
64886;BME280;51514;52.206;5.114;2022-07-30T11:02:24;101975.41;;;25.79;48.95
64886;BME280;51514;52.206;5.114;2022-07-30T11:07:41;101989.47;;;26.08;47.94
64886;BME280;51514;52.206;5.114;2022-07-30T11:10:37;101976.19;;;26.16;46.15
64886;BME280;51514;52.206;5.114;2022-07-30T11:13:05;101990.06;;;26.28;45.83
64886;BME280;51514;52.206;5.114;2022-07-30T11:18:22;101978.22;;;26.51;44.33
64886;BME280;51514;52.206;5.114;2022-07-30T11:21:17;101980.44;;;26.61;44.90
64886;BME280;51514;52.206;5.114;2022-07-30T11:23:43;101974.03;;;26.72;43.93
64886;BME280;51514;52.206;5.114;2022-07-30T11:26:46;101974.41;;;26.64;44.34
64886;BME280;51514;52.206;5.114;2022-07-30T11:29:37;101968.63;;;26.65;44.05
64886;BME280;51514;52.206;5.114;2022-07-30T11:32:28;101976.69;;;26.67;43.80
64886;BME280;51514;52.206;5.114;2022-07-30T11:35:34;101975.63;;;26.68;42.60
64886;BME280;51514;52.206;5.114;2022-07-30T11:38:06;101974.88;;;26.72;43.00
64886;BME280;51514;52.206;5.114;2022-07-30T11:40:37;101971.06;;;26.85;43.66
64886;BME280;51514;52.206;5.114;2022-07-30T11:43:24;101963.25;;;26.94;42.41
64886;BME280;51514;52.206;5.114;2022-07-30T11:45:54;101967.25;;;27.09;42.05
64886;BME280;51514;52.206;5.114;2022-07-30T11:48:29;101965.19;;;27.16;42.15
64886;BME280;51514;52.206;5.114;2022-07-30T11:50:54;101975.31;;;27.34;42.36
64886;BME280;51514;52.206;5.114;2022-07-30T11:53:20;101966.84;;;27.41;42.00
64886;BME280;51514;52.206;5.114;2022-07-30T11:55:50;101971.44;;;27.35;42.51
64886;BME280;51514;52.206;5.114;2022-07-30T11:58:35;101965.94;;;27.23;41.07
64886;BME280;51514;52.206;5.114;2022-07-30T12:01:06;101958.22;;;27.14;41.40
64886;BME280;51514;52.206;5.114;2022-07-30T12:03:38;101965.69;;;27.02;41.89
64886;BME280;51514;52.206;5.114;2022-07-30T12:06:06;101973.03;;;26.96;42.95
64886;BME280;51514;52.206;5.114;2022-07-30T12:08:42;101959.97;;;26.85;42.39
64886;BME280;51514;52.206;5.114;2022-07-30T12:11:08;101969.97;;;26.86;42.81
64886;BME280;51514;52.206;5.114;2022-07-30T12:13:35;101971.41;;;26.77;42.91
64886;BME280;51514;52.206;5.114;2022-07-30T12:16:06;101972.97;;;26.73;41.75
64886;BME280;51514;52.206;5.114;2022-07-30T12:18:32;101977.06;;;26.70;42.36
64886;BME280;51514;52.206;5.114;2022-07-30T12:21:01;101968.63;;;26.65;42.10
64886;BME280;51514;52.206;5.114;2022-07-30T12:23:28;101978.84;;;26.65;42.45
64886;BME280;51514;52.206;5.114;2022-07-30T12:25:54;101973.31;;;26.65;43.06
64886;BME280;51514;52.206;5.114;2022-07-30T12:28:31;101964.41;;;26.63;43.82
64886;BME280;51514;52.206;5.114;2022-07-30T12:30:58;101967.66;;;26.60;43.73
64886;BME280;51514;52.206;5.114;2022-07-30T12:33:26;101973.19;;;26.60;43.11
64886;BME280;51514;52.206;5.114;2022-07-30T12:35:56;101976.91;;;26.53;42.92
64886;BME280;51514;52.206;5.114;2022-07-30T12:38:22;101969.06;;;26.50;42.98
64886;BME280;51514;52.206;5.114;2022-07-30T12:41:01;101970.75;;;26.51;43.51
64886;BME280;51514;52.206;5.114;2022-07-30T12:43:43;101971.72;;;26.45;42.95
64886;BME280;51514;52.206;5.114;2022-07-30T12:48:49;101972.31;;;26.36;43.87
64886;BME280;51514;52.206;5.114;2022-07-30T12:51:14;101963.78;;;26.37;44.14
64886;BME280;51514;52.206;5.114;2022-07-30T12:53:40;101967.63;;;26.36;44.09
64886;BME280;51514;52.206;5.114;2022-07-30T12:56:13;101963.84;;;26.31;45.29
64886;BME280;51514;52.206;5.114;2022-07-30T12:58:40;101964.94;;;26.30;44.29
64886;BME280;51514;52.206;5.114;2022-07-30T13:01:06;101967.00;;;26.34;44.91
64886;BME280;51514;52.206;5.114;2022-07-30T13:03:32;101961.00;;;26.37;45.18
64886;BME280;51514;52.206;5.114;2022-07-30T13:06:11;101966.66;;;26.42;45.70
64886;BME280;51514;52.206;5.114;2022-07-30T13:11:11;101956.47;;;26.54;45.40
64886;BME280;51514;52.206;5.114;2022-07-30T13:13:36;101960.31;;;26.53;45.12